AirNav   TITAN Aviation Fuels
 
 615 users online  

49OH Sky Ranch Airport
West Jefferson, Ohio, USA

GOING TO WEST JEFFERSON?


FAA INFORMATION EFFECTIVE 09 SEPTEMBER 2021

Location

FAA Identifier: 49OH
Lat/Long: 39-56-07.6250N 083-14-11.0350W
39-56.127083N 083-14.183917W
39.9354514,-83.2363986
(estimated)
Elevation: 920 ft. / 280 m (estimated)
From city: 2 miles SE of WEST JEFFERSON, OH
Time zone: UTC -4 (UTC -5 during Standard Time)
Zip code: 43119

Airport Operations

Airport use: Private use. Permission required prior to landing
Activation date: 11/2017
Control tower: no
ARTCC: INDIANAPOLIS CENTER
FSS: DAYTON FLIGHT SERVICE STATION
Attendance: 
Segmented circle: no

Airport Communications

WX AWOS-3 at TZR (5 nm SE): 135.925 (614-878-1722)
WX AWOS-3PT at UYF (10 nm W): 120.85 (740-852-2844)
WX ASOS at OSU (11 nm NE): 121.35 (614-451-2465)
WX AWOS-3 at LCK (16 nm SE): PHONE 614-492-2441
WX ASOS at CMH (16 nm E): 124.6 (614-338-4083)
WX AWOS-3 at MRT (18 nm N): 119.275 (937-644-2967)

Nearby radio navigation aids

VOR radial/distance  VOR name  Freq  Var
XUBr339/(27.3)YELLOW BUD VOR112.5005W
APEr253/32.5APPLETON VORTAC116.7006W

 
NDB name  Hdg/Dist  Freq  Var  ID
BOUTN353/7.123005WBU -... ..-
FULER197/8.551505WOS --- ...
COURT HOUSE026/21.341406WCSS -.-. ... ...

Airport Services

Runway Information

Runway 6/24

Dimensions: 3000 x 100 ft. / 914 x 30 m
Surface: turf, in fair condition
RUNWAY 6  RUNWAY 24
Latitude: 39-55.989333N39-56.264833N
Longitude: 083-14.450333W083-13.917500W
Elevation: 920.0 ft.920.0 ft.
Traffic pattern: leftleft

Airport Ownership and Management from official FAA records

Ownership: Privately-owned
Owner: RUSS MILLER
9291 W BROAD ST
GALLOWAY, OH 43119-6145
Manager: RUSS MILLER
9291 W BROAD ST
GALLOWAY, OH 43119
Phone 614-204-4588

Airport Operational Statistics

Aircraft based on the field: 2
Single engine airplanes: 2
    

Additional Remarks

FOR CD CTC INDIANAPOLIS ARTCC AT 317-247-2411.

Instrument Procedures

There are no published instrument procedures at 49OH.

Some nearby airports with instrument procedures:

KTZR - Bolton Field Airport (5 nm SE)
KUYF - Madison County Airport (10 nm W)
KOSU - Ohio State University Airport (11 nm NE)
KLCK - Rickenbacker International Airport (16 nm SE)
KCMH - John Glenn Columbus International Airport (16 nm E)
KMRT - Union County Airport (18 nm N)
 
Loc | Ops | Rwys | IFR | FBO | Links
Com | Nav | Svcs | Stats | Notes
Aerial photo
No photo
 
Airport distance calculator
Flying to Sky Ranch Airport? Find the distance to fly.

From to 49OH

Sunrise and sunset
Times for 24-Sep-2021
 Local
(UTC-4)
 Zulu
(UTC)
Morning civil twilight06:5610:56
Sunrise07:2311:23
Sunset19:2723:27
Evening civil twilight19:5423:54

Current date and time
Zulu (UTC)  24-Sep-2021 05:33:16
Local (UTC-4)  24-Sep-2021 01:33:16
 
METAR
KTZR 
6nm SE 
240515Z AUTO 21004KT 10SM OVC075 10/09 A3002 RMK AO2 LTG DSNT E T01010087
KUYF 
10nm W 
240515Z AUTO 22005KT 10SM OVC080 10/08 A3002 RMK AO2
KOSU 
11nm NE 
240453Z AUTO 22005KT 10SM BKN080 12/08 A3001 RMK AO2 SLP161 T01220078 401560106
KLCK 
16nm SE 
240455Z AUTO 20004KT 10SM CLR 12/08 A3002 RMK AO2 T01150082
KCMH 
17nm E 
240451Z 22004KT 10SM FEW065 SCT100 12/07 A3001 RMK AO2 SLP162 T01170072 401670100
KMRT 
18nm N 
240515Z AUTO 24006KT OVC070 11/08 A3001 RMK AO2 T01100076
TAF
KLCK 
16nm SE 
240136Z 2402/2424 27005KT P6SM OVC060 FM240600 23005KT P6SM SCT090 FM241400 24010KT P6SM SKC FM242300 21006KT P6SM SKC
KCMH 
17nm E 
231720Z 2318/2418 26012G22KT P6SM BKN035 FM240100 24007KT P6SM BKN060 FM240600 23005KT P6SM SCT090 FM241400 24007KT P6SM SKC
NOTAMs
Click for the latest NOTAMs
NOTAMs are issued by the DoD/FAA and will open in a separate window not controlled by AirNav.

 

 
 

Would you like to see your business listed on this page?

 If your business provides an interesting product or service to pilots, flight crews, aircraft, or users of the Sky Ranch Airport, you should consider listing it here.  To start the listing process, click on the button below
 
Add a business
 

Other Pages about Sky Ranch Airport

Update a link
 
Copyright © AirNav, LLC. All rights reserved. Privacy Policy  Contact